Time;durP1;ratioP1;P1;durP2;ratioP2;P2;SDS_P1;SDS_P2;PMS_P1;PMS_P2;Temp;Humidity;BMP_temperature;BMP_pressure;BME280_temperature;BME280_humidity;BME280_pressure;Samples;Min_cycle;Max_cycle;Signal;HPM_P1;HPM_P2
2023/04/07 00:00:03;;;;;;;0.50;0.50;;;;;;;4.98;87.80;96862.44;29395;235;63005;-57
2023/04/07 00:00:35;;;;;;;0.50;0.50;;;;;;;4.94;88.98;96858.63;29394;227;64013;-57
2023/04/07 00:01:06;;;;;;;0.50;0.50;;;;;;;4.96;88.23;96867.25;29395;203;63005;-56
2023/04/07 00:01:39;;;;;;;0.50;0.50;;;;;;;4.96;88.40;96861.88;29395;212;63009;-64
2023/04/07 00:02:11;;;;;;;0.60;0.60;;;;;;;4.96;89.04;96864.56;29395;198;63005;-65
2023/04/07 00:02:42;;;;;;;0.60;0.60;;;;;;;4.96;89.18;96864.56;29395;209;63009;-57
2023/04/07 00:03:13;;;;;;;0.60;0.60;;;;;;;4.95;89.57;96861.06;29395;239;63004;-65
2023/04/07 00:03:45;;;;;;;0.60;0.60;;;;;;;4.95;90.22;96857.56;29395;239;63009;-56
2023/04/07 00:04:18;;;;;;;0.62;0.62;;;;;;;4.94;89.60;96858.63;29395;234;63014;-56
2023/04/07 00:04:49;;;;;;;0.60;0.60;;;;;;;4.93;89.60;96857.00;29395;198;63009;-57
2023/04/07 00:05:21;;;;;;;0.60;0.60;;;;;;;4.93;89.47;96857.00;29394;236;64008;-57
2023/04/07 00:05:54;;;;;;;0.60;0.60;;;;;;;4.92;89.97;96858.88;29395;344;63013;-56
2023/04/07 00:06:26;;;;;;;0.57;0.57;;;;;;;4.91;89.47;96859.13;29395;202;63005;-56
2023/04/07 00:06:57;;;;;;;0.60;0.60;;;;;;;4.90;89.12;96857.53;29395;249;63009;-65
2023/04/07 00:07:28;;;;;;;0.60;0.60;;;;;;;4.91;88.62;96853.75;29395;216;63005;-56
2023/04/07 00:08:00;;;;;;;0.60;0.60;;;;;;;4.91;89.69;96856.44;29395;214;63009;-65
2023/04/07 00:08:35;;;;;;;0.60;0.60;;;;;;;4.91;88.95;96859.94;29395;238;63005;-57
2023/04/07 00:09:06;;;;;;;0.60;0.60;;;;;;;4.92;89.47;96860.75;29394;213;64013;-57
2023/04/07 00:09:37;;;;;;;0.50;0.50;;;;;;;4.90;90.55;96857.53;29395;271;63005;-57
2023/04/07 00:10:10;;;;;;;0.50;0.50;;;;;;;4.90;90.60;96860.22;29395;198;63025;-56
2023/04/07 00:10:42;;;;;;;0.50;0.50;;;;;;;4.89;90.65;96855.91;29395;197;63004;-63
2023/04/07 00:11:13;;;;;;;0.60;0.60;;;;;;;4.88;90.98;96855.09;29394;204;64013;-57
2023/04/07 00:11:45;;;;;;;0.50;0.50;;;;;;;4.88;90.31;96855.09;29395;210;63004;-57
2023/04/07 00:12:16;;;;;;;0.60;0.60;;;;;;;4.88;90.86;96852.41;29394;269;64009;-57
2023/04/07 00:12:47;;;;;;;0.60;0.60;;;;;;;4.90;90.17;96852.13;29395;262;63004;-56
2023/04/07 00:13:19;;;;;;;0.60;0.60;;;;;;;4.90;90.47;96860.22;29395;210;63008;-56
2023/04/07 00:13:50;;;;;;;0.57;0.57;;;;;;;4.90;90.95;96852.13;29394;231;64009;-56
2023/04/07 00:14:21;;;;;;;0.60;0.60;;;;;;;4.90;90.36;96852.13;29395;322;63009;-56
2023/04/07 00:14:52;;;;;;;0.60;0.60;;;;;;;4.91;89.61;96853.75;29395;235;63005;-56
2023/04/07 00:15:24;;;;;;;0.50;0.50;;;;;;;4.95;89.21;96852.19;29395;271;63009;-56
2023/04/07 00:15:55;;;;;;;0.60;0.60;;;;;;;4.96;89.29;96857.31;29395;206;63005;-57
2023/04/07 00:16:27;;;;;;;0.60;0.60;;;;;;;4.97;89.14;96852.75;29395;211;63009;-56
2023/04/07 00:16:58;;;;;;;0.60;0.60;;;;;;;4.96;88.63;96851.13;29395;216;63004;-57
2023/04/07 00:17:29;;;;;;;0.60;0.60;;;;;;;4.96;89.03;96851.94;29394;213;64013;-56
2023/04/07 00:18:02;;;;;;;0.60;0.60;;;;;;;4.95;89.02;96849.50;29395;197;63007;-56
2023/04/07 00:18:34;;;;;;;0.50;0.50;;;;;;;4.95;88.23;96844.13;29395;214;63009;-57
2023/04/07 00:19:06;;;;;;;0.60;0.60;;;;;;;4.96;88.29;96845.75;29395;215;63004;-56
2023/04/07 00:19:37;;;;;;;0.60;0.60;;;;;;;4.97;88.72;96850.06;29395;234;63008;-57
2023/04/07 00:20:09;;;;;;;0.60;0.60;;;;;;;4.96;89.22;96854.63;29395;202;63010;-56
2023/04/07 00:20:41;;;;;;;0.50;0.50;;;;;;;4.93;90.07;96846.25;29395;223;63008;-56
2023/04/07 00:21:13;;;;;;;0.55;0.55;;;;;;;4.91;90.02;96843.00;29394;202;64009;-56
2023/04/07 00:21:44;;;;;;;0.60;0.60;;;;;;;4.91;89.86;96843.00;29395;222;63009;-57
2023/04/07 00:22:16;;;;;;;0.60;0.60;;;;;;;4.90;90.27;96852.13;29395;202;63005;-57
2023/04/07 00:22:48;;;;;;;0.60;0.60;;;;;;;4.89;90.39;96845.13;29395;207;63017;-57
2023/04/07 00:23:21;;;;;;;0.50;0.50;;;;;;;4.89;90.99;96845.13;29395;221;63008;-56
2023/04/07 00:23:52;;;;;;;0.60;0.60;;;;;;;4.89;91.12;96847.81;29394;221;64013;-56
2023/04/07 00:24:24;;;;;;;0.60;0.60;;;;;;;4.89;89.88;96845.13;29395;352;63004;-56
2023/04/07 00:24:56;;;;;;;0.52;0.52;;;;;;;4.89;89.45;96845.13;29395;214;63009;-65
2023/04/07 00:25:27;;;;;;;0.60;0.60;;;;;;;4.91;89.34;96848.38;29394;218;64021;-57
2023/04/07 00:25:59;;;;;;;0.50;0.50;;;;;;;4.92;89.31;96844.63;29395;218;63009;-57
2023/04/07 00:26:31;;;;;;;0.50;0.50;;;;;;;4.93;89.91;96851.63;29395;252;63004;-56
2023/04/07 00:27:03;;;;;;;0.60;0.60;;;;;;;4.90;90.33;96844.06;29395;327;63008;-64
2023/04/07 00:27:34;;;;;;;0.50;0.50;;;;;;;4.96;89.74;96845.75;29395;338;63004;-64
2023/04/07 00:28:09;;;;;;;0.60;0.60;;;;;;;4.95;89.27;96844.13;29395;228;63009;-63
2023/04/07 00:28:40;;;;;;;0.50;0.50;;;;;;;4.95;89.25;96838.75;29395;205;63005;-57
2023/04/07 00:29:11;;;;;;;0.60;0.60;;;;;;;4.93;89.71;96841.69;29395;204;63009;-57
2023/04/07 00:29:45;;;;;;;0.60;0.60;;;;;;;4.89;90.34;96845.13;29395;210;63005;-65
2023/04/07 00:30:17;;;;;;;0.60;0.60;;;;;;;4.87;90.61;96841.91;29394;198;64013;-56
2023/04/07 00:30:48;;;;;;;0.60;0.60;;;;;;;4.86;89.94;96837.59;29395;236;63005;-65
2023/04/07 00:31:20;;;;;;;0.60;0.60;;;;;;;4.85;89.94;96833.31;29395;202;63017;-56
2023/04/07 00:31:51;;;;;;;0.60;0.60;;;;;;;4.85;90.38;96838.69;29395;226;63005;-65
2023/04/07 00:32:22;;;;;;;0.60;0.60;;;;;;;4.84;90.33;96839.75;29395;202;63009;-55
2023/04/07 00:32:54;;;;;;;0.50;0.50;;;;;;;4.83;90.82;96833.56;29395;205;63004;-56
2023/04/07 00:33:25;;;;;;;0.60;0.60;;;;;;;4.82;90.85;96833.81;29395;236;63009;-56
2023/04/07 00:33:56;;;;;;;0.60;0.60;;;;;;;4.80;90.11;96831.37;29395;235;63004;-66
2023/04/07 00:34:27;;;;;;;0.60;0.60;;;;;;;4.80;89.28;96831.37;29394;232;64013;-57
2023/04/07 00:34:59;;;;;;;0.50;0.50;;;;;;;4.82;89.31;96833.81;29395;229;63004;-56
2023/04/07 00:35:31;;;;;;;0.60;0.60;;;;;;;4.83;89.88;96833.56;29395;236;64014;-67
2023/04/07 00:36:02;;;;;;;0.60;0.60;;;;;;;4.84;89.82;96826.31;29395;218;63005;-57
2023/04/07 00:36:33;;;;;;;0.50;0.50;;;;;;;4.80;89.43;96819.81;29395;204;63016;-66
2023/04/07 00:37:05;;;;;;;0.60;0.60;;;;;;;4.83;89.88;96830.06;29395;230;63005;-65
2023/04/07 00:37:39;;;;;;;0.50;0.50;;;;;;;4.83;90.45;96827.38;29394;226;64013;-56
2023/04/07 00:38:11;;;;;;;0.60;0.60;;;;;;;4.83;90.62;96828.19;29395;216;63005;-56
2023/04/07 00:38:43;;;;;;;0.60;0.60;;;;;;;4.83;90.61;96824.69;29395;196;63009;-64
2023/04/07 00:39:14;;;;;;;0.60;0.60;;;;;;;4.82;91.08;96823.88;29395;235;63005;-56
2023/04/07 00:39:45;;;;;;;0.60;0.60;;;;;;;4.82;90.76;96828.44;29394;222;64013;-64
2023/04/07 00:40:17;;;;;;;0.60;0.60;;;;;;;4.80;91.55;96823.31;29395;196;63004;-56
2023/04/07 00:40:48;;;;;;;0.60;0.60;;;;;;;4.79;92.22;96821.69;29394;384;64013;-57
2023/04/07 00:41:19;;;;;;;0.60;0.60;;;;;;;4.77;92.10;96821.16;29395;202;63004;-64
2023/04/07 00:41:51;;;;;;;0.68;0.68;;;;;;;4.78;92.12;96819.28;29395;207;63009;-57
2023/04/07 00:42:22;;;;;;;0.50;0.50;;;;;;;4.78;92.09;96819.28;29395;216;63004;-66
2023/04/07 00:42:53;;;;;;;0.50;0.50;;;;;;;4.77;91.72;96826.53;29395;320;63009;-56
2023/04/07 00:43:25;;;;;;;0.68;0.68;;;;;;;4.78;92.12;96821.97;29395;216;63005;-56
2023/04/07 00:43:56;;;;;;;0.50;0.50;;;;;;;4.79;91.49;96818.22;29395;224;63009;-56
2023/04/07 00:44:28;;;;;;;0.60;0.60;;;;;;;4.79;91.88;96823.59;29395;214;63005;-56
2023/04/07 00:45:00;;;;;;;0.60;0.60;;;;;;;4.79;91.70;96823.59;29394;213;64013;-56
2023/04/07 00:45:31;;;;;;;0.60;0.60;;;;;;;4.80;91.57;96814.44;29395;351;63005;-67
2023/04/07 00:46:02;;;;;;;0.50;0.50;;;;;;;4.81;90.71;96824.94;29395;202;63009;-56
2023/04/07 00:46:34;;;;;;;0.60;0.60;;;;;;;4.83;90.41;96822.81;29394;236;64009;-65
2023/04/07 00:47:05;;;;;;;0.50;0.50;;;;;;;4.82;90.63;96809.63;29395;216;63009;-64
2023/04/07 00:47:37;;;;;;;0.60;0.60;;;;;;;4.83;91.20;96813.94;29395;220;63004;-66
2023/04/07 00:48:09;;;;;;;0.60;0.60;;;;;;;4.83;90.52;96816.63;29395;231;63009;-57
2023/04/07 00:48:41;;;;;;;0.60;0.60;;;;;;;4.86;89.61;96811.50;29395;223;63004;-59
2023/04/07 00:49:12;;;;;;;0.50;0.50;;;;;;;4.94;89.24;96812.91;29395;227;63009;-64
2023/04/07 00:49:43;;;;;;;0.52;0.52;;;;;;;4.98;88.88;96812.16;29395;208;63004;-57
2023/04/07 00:50:15;;;;;;;0.60;0.60;;;;;;;4.99;88.85;96812.97;29395;215;63008;-56
2023/04/07 00:50:46;;;;;;;0.52;0.52;;;;;;;5.00;88.64;96814.56;29395;235;63015;-58
2023/04/07 00:51:23;;;;;;;0.50;0.50;;;;;;;5.00;88.51;96814.56;29394;203;64014;-57
2023/04/07 00:51:57;;;;;;;0.60;0.60;;;;;;;5.01;88.42;96816.19;29395;221;63005;-57
2023/04/07 00:52:29;;;;;;;0.50;0.50;;;;;;;5.00;88.97;96815.37;29395;240;63009;-56
2023/04/07 00:53:03;;;;;;;0.60;0.60;;;;;;;4.97;89.12;96810.53;29395;197;63005;-57
2023/04/07 00:53:34;;;;;;;0.60;0.60;;;;;;;4.95;90.23;96817.22;29395;278;63009;-56
2023/04/07 00:54:06;;;;;;;0.60;0.60;;;;;;;4.92;90.31;96813.19;29395;295;63005;-64
2023/04/07 00:54:39;;;;;;;0.50;0.50;;;;;;;4.90;89.98;96811.81;29395;253;63009;-56
2023/04/07 00:55:10;;;;;;;0.60;0.60;;;;;;;4.89;89.96;96812.88;29395;228;63004;-65
2023/04/07 00:55:42;;;;;;;0.50;0.50;;;;;;;4.89;90.50;96804.81;29394;247;64013;-67
2023/04/07 00:56:13;;;;;;;0.60;0.60;;;;;;;4.96;90.26;96805.41;29395;231;63004;-56
2023/04/07 00:56:46;;;;;;;0.57;0.57;;;;;;;4.97;89.81;96807.03;29395;219;63009;-67
2023/04/07 00:57:17;;;;;;;0.52;0.52;;;;;;;4.96;89.66;96808.09;29395;221;63004;-58
2023/04/07 00:57:51;;;;;;;0.50;0.50;;;;;;;4.96;89.46;96808.09;29395;274;63017;-56
2023/04/07 00:58:23;;;;;;;0.60;0.60;;;;;;;4.97;89.50;96807.03;29395;211;63005;-56
2023/04/07 00:58:55;;;;;;;0.50;0.50;;;;;;;4.95;89.13;96806.47;29395;226;63009;-56
2023/04/07 00:59:28;;;;;;;0.60;0.60;;;;;;;4.95;89.26;96801.09;29395;213;63001;-57
2023/04/07 00:59:59;;;;;;;0.50;0.50;;;;;;;4.96;89.15;96803.53;29394;222;64013;-63
2023/04/07 01:00:35;;;;;;;0.60;0.60;;;;;;;4.96;89.00;96808.09;29394;277;64009;-56
2023/04/07 01:01:18;;;;;;;0.57;0.57;;;;;;;4.95;88.90;96798.41;29395;238;63009;-65
2023/04/07 01:02:38;;;;;;;0.60;0.60;;;;;;;4.91;89.83;96800.00;29395;240;63005;-56
2023/04/07 01:03:25;;;;;;;0.60;0.60;;;;;;;4.93;89.88;96798.66;29394;202;64013;-64
2023/04/07 01:04:12;;;;;;;0.60;0.60;;;;;;;4.91;89.76;96800.00;29395;208;63004;-65
2023/04/07 01:04:58;;;;;;;0.60;0.60;;;;;;;4.89;90.05;96802.13;29395;211;63016;-57
2023/04/07 01:05:45;;;;;;;0.50;0.50;;;;;;;4.86;90.59;96797.25;29394;213;64021;-56
2023/04/07 01:06:23;;;;;;;0.60;0.60;;;;;;;4.84;90.80;96799.44;29395;202;63009;-57
2023/04/07 01:07:01;;;;;;;0.60;0.60;;;;;;;4.81;91.27;96794.56;29395;209;63005;-57
2023/04/07 01:08:02;;;;;;;0.60;0.60;;;;;;;4.81;90.54;96794.56;29395;222;63009;-56
2023/04/07 01:09:00;;;;;;;0.60;0.60;;;;;;;4.80;90.15;96790.25;29394;339;64009;-56
2023/04/07 01:09:46;;;;;;;0.60;0.60;;;;;;;4.81;89.80;96794.56;29395;202;63015;-56
2023/04/07 01:10:26;;;;;;;0.50;0.50;;;;;;;4.80;90.11;96787.56;29373;230;63004;-55
2023/04/07 01:11:29;;;;;;;0.60;0.60;;;;;;;4.85;89.80;96790.28;29395;198;63009;-66
2023/04/07 01:12:21;;;;;;;0.60;0.60;;;;;;;4.85;90.20;96790.28;29394;209;64009;-56
2023/04/07 01:13:03;;;;;;;0.60;0.60;;;;;;;4.85;90.59;96787.59;29395;199;63008;-55
2023/04/07 01:13:48;;;;;;;0.60;0.60;;;;;;;4.82;90.71;96791.63;29395;223;63005;-55
2023/04/07 01:14:20;;;;;;;0.60;0.60;;;;;;;4.82;90.13;96785.44;29373;216;63009;-64
2023/04/07 01:14:57;;;;;;;0.60;0.60;;;;;;;4.82;90.64;96780.06;29395;334;63005;-63
2023/04/07 01:15:33;;;;;;;0.60;0.60;;;;;;;4.80;91.22;96788.38;29395;237;63009;-65
2023/04/07 01:16:10;;;;;;;0.60;0.60;;;;;;;4.81;90.67;96791.87;29394;217;64009;-56
2023/04/07 01:16:51;;;;;;;0.60;0.60;;;;;;;4.81;90.92;96783.81;29395;248;63009;-56
2023/04/07 01:17:26;;;;;;;0.60;0.60;;;;;;;4.80;90.67;96787.56;29417;249;63004;-54
2023/04/07 01:18:07;;;;;;;0.55;0.55;;;;;;;4.79;90.91;96788.62;29395;213;63009;-64
2023/04/07 01:18:40;;;;;;;0.68;0.68;;;;;;;4.80;90.85;96782.19;29394;202;64009;-55
2023/04/07 01:19:56;;;;;;;0.50;0.50;;;;;;;4.78;90.37;96778.94;29395;238;63009;-56
2023/04/07 01:20:32;;;;;;;0.60;0.60;;;;;;;4.78;90.11;96782.44;29394;229;64008;-56
2023/04/07 01:21:07;;;;;;;0.60;0.60;;;;;;;4.79;90.65;96780.56;29373;250;63009;-65
2023/04/07 01:21:42;;;;;;;0.50;0.50;;;;;;;4.77;91.37;96778.16;29395;210;63005;-56
2023/04/07 01:22:16;;;;;;;0.60;0.60;;;;;;;4.77;91.05;96777.34;29395;199;63009;-56
2023/04/07 01:22:57;;;;;;;0.50;0.50;;;;;;;4.74;90.84;96778.66;29395;287;63005;-57
2023/04/07 01:24:11;;;;;;;0.60;0.60;;;;;;;4.82;90.32;96785.44;29416;202;64013;-55
2023/04/07 01:25:18;;;;;;;0.57;0.57;;;;;;;4.85;90.00;96774.94;29395;205;63004;-56
2023/04/07 01:26:07;;;;;;;0.60;0.60;;;;;;;4.90;89.47;96771.47;29395;297;63004;-57
2023/04/07 01:26:41;;;;;;;0.52;0.52;;;;;;;4.91;89.28;96778.47;29394;209;64013;-55
2023/04/07 01:27:53;;;;;;;0.50;0.50;;;;;;;4.93;89.26;96776.34;29395;209;63004;-65
2023/04/07 01:29:03;;;;;;;0.60;0.60;;;;;;;4.92;88.96;96778.22;29416;217;64014;-63
2023/04/07 01:29:39;;;;;;;0.60;0.60;;;;;;;4.87;89.75;96780.88;29395;219;63009;-55
2023/04/07 01:30:14;;;;;;;0.50;0.50;;;;;;;4.87;90.13;96782.75;29395;237;63005;-64
2023/04/07 01:30:50;;;;;;;0.60;0.60;;;;;;;4.85;90.03;96780.31;29395;200;63009;-55
2023/04/07 01:31:25;;;;;;;0.60;0.60;;;;;;;4.86;90.18;96775.75;29395;342;63005;-65
2023/04/07 01:32:00;;;;;;;0.60;0.60;;;;;;;4.84;89.90;96780.59;29371;232;64013;-55
2023/04/07 01:32:38;;;;;;;0.60;0.60;;;;;;;4.82;90.98;96774.69;29371;213;64009;-56
2023/04/07 01:33:12;;;;;;;0.60;0.60;;;;;;;4.82;91.05;96785.44;29395;210;63009;-56
2023/04/07 01:33:45;;;;;;;0.60;0.60;;;;;;;4.82;90.74;96780.06;29373;206;63004;-64
2023/04/07 01:34:17;;;;;;;0.60;0.60;;;;;;;4.80;90.89;96779.50;29395;230;63008;-66
2023/04/07 01:34:51;;;;;;;0.60;0.60;;;;;;;4.79;91.25;96781.38;29395;205;63004;-64
2023/04/07 01:35:25;;;;;;;0.60;0.60;;;;;;;4.78;91.22;96776.25;29371;259;64014;-56
2023/04/07 01:36:00;;;;;;;0.60;0.60;;;;;;;4.77;91.58;96769.28;29373;237;63010;-56
2023/04/07 01:36:33;;;;;;;0.60;0.60;;;;;;;4.76;91.24;96778.41;29373;234;63009;-62
2023/04/07 01:37:06;;;;;;;0.60;0.60;;;;;;;4.75;91.17;96768.72;29394;202;64009;-55
2023/04/07 01:37:38;;;;;;;0.60;0.60;;;;;;;4.75;91.32;96774.09;29395;202;63009;-64
2023/04/07 01:38:11;;;;;;;0.60;0.60;;;;;;;4.74;91.60;96777.84;29395;227;63005;-55
2023/04/07 01:38:43;;;;;;;0.60;0.60;;;;;;;4.73;91.50;96771.66;29395;200;63009;-55
2023/04/07 01:39:15;;;;;;;0.50;0.50;;;;;;;4.74;91.30;96775.97;29395;242;63010;-56
2023/04/07 01:39:46;;;;;;;0.60;0.60;;;;;;;4.76;90.88;96765.78;29395;220;63009;-56
2023/04/07 01:40:21;;;;;;;0.60;0.60;;;;;;;4.79;90.62;96769.81;29395;234;63004;-55
2023/04/07 01:40:55;;;;;;;0.60;0.60;;;;;;;4.81;90.31;96773.06;29395;218;63013;-56
2023/04/07 01:41:27;;;;;;;0.60;0.60;;;;;;;4.83;90.25;96769.03;29395;222;63004;-56
2023/04/07 01:42:01;;;;;;;0.60;0.60;;;;;;;4.85;89.49;96774.16;29395;197;63008;-56
2023/04/07 01:42:35;;;;;;;0.60;0.60;;;;;;;4.87;89.43;96774.69;29394;204;64009;-55
2023/04/07 01:43:07;;;;;;;0.60;0.60;;;;;;;4.86;89.50;96765.00;29395;242;63009;-64
2023/04/07 01:43:40;;;;;;;0.60;0.60;;;;;;;4.87;89.38;96766.63;29395;256;63005;-55
2023/04/07 01:44:12;;;;;;;0.60;0.60;;;;;;;4.87;88.99;96763.94;29395;215;63009;-56
2023/04/07 01:44:46;;;;;;;0.60;0.60;;;;;;;4.86;89.11;96765.00;29395;212;63005;-55
2023/04/07 01:45:20;;;;;;;0.60;0.60;;;;;;;4.86;89.21;96771.19;29395;244;63009;-56
2023/04/07 01:45:55;;;;;;;0.60;0.60;;;;;;;4.92;88.97;96769.34;29395;223;63005;-65
2023/04/07 01:46:27;;;;;;;0.60;0.60;;;;;;;4.95;88.65;96768.81;29394;229;64013;-56
2023/04/07 01:47:00;;;;;;;0.60;0.60;;;;;;;4.96;88.59;96762.37;29395;227;63004;-55
2023/04/07 01:47:38;;;;;;;0.50;0.50;;;;;;;4.98;88.60;96761.06;29395;315;63009;-56
2023/04/07 01:48:11;;;;;;;0.60;0.60;;;;;;;5.00;88.57;96763.50;29395;238;63004;-55
2023/04/07 01:48:46;;;;;;;0.60;0.60;;;;;;;5.01;88.57;96757.03;29395;209;63009;-56
2023/04/07 01:49:24;;;;;;;0.60;0.60;;;;;;;5.01;87.95;96757.03;29395;223;63004;-55
2023/04/07 01:49:57;;;;;;;0.60;0.60;;;;;;;5.01;88.11;96759.72;29394;267;64005;-56
2023/04/07 01:50:29;;;;;;;0.60;0.60;;;;;;;5.03;87.79;96760.28;29395;216;63005;-56
2023/04/07 01:51:01;;;;;;;0.60;0.60;;;;;;;5.04;87.83;96761.91;29395;207;63009;-56
2023/04/07 01:51:34;;;;;;;0.60;0.60;;;;;;;5.04;87.48;96753.84;29395;212;63005;-55
2023/04/07 01:52:08;;;;;;;0.60;0.60;;;;;;;5.03;87.53;96749.53;29394;225;64013;-55
2023/04/07 01:52:41;;;;;;;0.50;0.50;;;;;;;5.06;87.81;96754.37;29395;240;63010;-55
2023/04/07 01:53:14;;;;;;;0.60;0.60;;;;;;;5.06;87.70;96762.44;29395;225;63009;-56
2023/04/07 01:53:47;;;;;;;0.80;0.80;;;;;;;5.07;87.48;96758.69;29395;272;63005;-55
2023/04/07 01:54:21;;;;;;;0.50;0.50;;;;;;;5.05;87.84;96752.75;29395;210;63009;-64
2023/04/07 01:54:54;;;;;;;0.60;0.60;;;;;;;5.03;87.61;96754.91;29395;196;63004;-57
2023/04/07 01:55:25;;;;;;;0.60;0.60;;;;;;;5.02;87.98;96759.47;29395;229;63009;-56
2023/04/07 01:55:56;;;;;;;0.52;0.52;;;;;;;5.02;87.75;96754.09;29395;212;63004;-64
2023/04/07 01:56:28;;;;;;;0.60;0.60;;;;;;;5.02;87.82;96758.66;29395;278;63009;-56
2023/04/07 01:57:00;;;;;;;0.50;0.50;;;;;;;5.02;87.81;96753.28;29395;210;63004;-56
2023/04/07 01:57:32;;;;;;;0.55;0.55;;;;;;;5.04;87.50;96759.22;29394;212;64014;-56
2023/04/07 01:58:05;;;;;;;0.60;0.60;;;;;;;5.04;87.64;96756.53;29395;235;63005;-62
2023/04/07 01:58:36;;;;;;;0.60;0.60;;;;;;;5.02;87.61;96747.91;29395;237;63005;-55
2023/04/07 01:59:07;;;;;;;0.50;0.50;;;;;;;5.03;87.53;96754.91;29395;233;63005;-64
2023/04/07 01:59:39;;;;;;;0.50;0.50;;;;;;;5.02;87.70;96753.28;29395;227;63009;-56
2023/04/07 02:00:11;;;;;;;0.50;0.50;;;;;;;5.01;87.59;96751.66;29395;273;63005;-56
2023/04/07 02:00:43;;;;;;;0.50;0.50;;;;;;;4.99;87.95;96751.91;29395;200;63009;-56
2023/04/07 02:01:14;;;;;;;0.50;0.50;;;;;;;5.00;87.84;96755.41;29395;213;63005;-56
2023/04/07 02:01:46;;;;;;;0.50;0.50;;;;;;;5.01;87.59;96757.03;29395;331;63009;-55
2023/04/07 02:02:18;;;;;;;0.50;0.50;;;;;;;4.99;88.09;96753.81;29395;213;63004;-56
2023/04/07 02:02:58;;;;;;;0.60;0.60;;;;;;;5.00;87.67;96752.72;29394;202;64013;-56
2023/04/07 02:03:43;;;;;;;0.60;0.60;;;;;;;5.00;88.24;96756.22;29395;193;63004;-56
2023/04/07 02:04:36;;;;;;;0.60;0.60;;;;;;;4.96;88.93;96755.13;29395;224;63008;-64
2023/04/07 02:05:16;;;;;;;0.60;0.60;;;;;;;4.95;88.24;96758.88;29395;202;63005;-63
2023/04/07 02:05:53;;;;;;;0.50;0.50;;;;;;;4.93;87.97;96755.66;29394;286;64014;-55
2023/04/07 02:06:33;;;;;;;0.60;0.60;;;;;;;4.93;87.98;96746.78;29395;280;63005;-55
2023/04/07 02:07:14;;;;;;;0.60;0.60;;;;;;;4.91;88.35;96752.41;29438;280;64013;-56
2023/04/07 02:07:58;;;;;;;0.60;0.60;;;;;;;4.89;88.44;96756.41;29395;206;63005;-57
2023/04/07 02:08:31;;;;;;;0.60;0.60;;;;;;;4.88;88.35;96754.81;29394;207;64013;-56
2023/04/07 02:09:06;;;;;;;0.60;0.60;;;;;;;4.88;88.26;96758.31;29395;289;63005;-56
2023/04/07 02:09:41;;;;;;;0.60;0.60;;;;;;;4.87;88.50;96758.56;29395;226;63009;-56
2023/04/07 02:10:15;;;;;;;0.60;0.60;;;;;;;4.87;88.22;96761.25;29395;212;63017;-56
2023/04/07 02:10:48;;;;;;;0.60;0.60;;;;;;;4.88;88.40;96755.59;29394;220;64013;-56
2023/04/07 02:11:24;;;;;;;0.60;0.60;;;;;;;4.90;88.56;96755.34;29395;204;63004;-55
2023/04/07 02:11:59;;;;;;;0.50;0.50;;;;;;;4.90;88.70;96749.97;29395;334;63008;-56
2023/04/07 02:12:32;;;;;;;0.60;0.60;;;;;;;4.92;88.58;96747.84;29394;203;64008;-56
2023/04/07 02:13:07;;;;;;;0.50;0.50;;;;;;;4.96;88.32;96751.63;29395;214;63025;-65
2023/04/07 02:13:42;;;;;;;0.60;0.60;;;;;;;4.97;87.75;96747.88;29395;342;63005;-64
2023/04/07 02:14:16;;;;;;;0.50;0.50;;;;;;;5.00;88.09;96747.34;29395;203;63009;-56
2023/04/07 02:14:47;;;;;;;0.50;0.50;;;;;;;5.03;87.49;96744.16;29395;228;63005;-55
2023/04/07 02:15:21;;;;;;;0.77;0.77;;;;;;;5.05;87.95;96750.06;29395;207;63009;-55
2023/04/07 02:15:55;;;;;;;0.60;0.60;;;;;;;5.04;87.74;96745.75;29395;286;63005;-55
2023/04/07 02:16:29;;;;;;;0.55;0.55;;;;;;;5.03;87.61;96744.16;29395;227;63009;-63
2023/04/07 02:17:01;;;;;;;0.60;0.60;;;;;;;4.99;87.93;96743.03;29395;238;63000;-55
2023/04/07 02:17:37;;;;;;;0.60;0.60;;;;;;;4.98;87.64;96742.25;29394;196;64013;-56
2023/04/07 02:18:12;;;;;;;0.50;0.50;;;;;;;4.99;87.67;96748.41;29395;224;63016;-56
2023/04/07 02:18:46;;;;;;;0.60;0.60;;;;;;;5.00;87.76;96744.66;29396;196;63020;-55
2023/04/07 02:19:18;;;;;;;0.60;0.60;;;;;;;4.99;87.64;96746.53;29396;206;63017;-64
2023/04/07 02:19:52;;;;;;;0.60;0.60;;;;;;;5.00;87.61;96747.34;29396;233;63008;-56
2023/04/07 02:20:24;;;;;;;0.50;0.50;;;;;;;5.03;87.80;96738.78;29396;209;63011;-55
2023/04/07 02:20:56;;;;;;;0.60;0.60;;;;;;;5.04;87.76;96746.56;29396;212;63009;-55
2023/04/07 02:21:29;;;;;;;0.60;0.60;;;;;;;5.03;87.51;96738.78;29396;228;63005;-55
2023/04/07 02:22:04;;;;;;;0.60;0.60;;;;;;;5.01;87.88;96746.28;29395;199;64013;-57
2023/04/07 02:22:38;;;;;;;0.60;0.60;;;;;;;4.98;88.06;96741.44;29396;207;63005;-56
2023/04/07 02:23:10;;;;;;;0.60;0.60;;;;;;;4.96;88.65;96738.19;29395;202;64013;-55
2023/04/07 02:23:41;;;;;;;0.60;0.60;;;;;;;4.94;88.32;96737.63;29396;197;63005;-56
2023/04/07 02:24:12;;;;;;;0.80;0.80;;;;;;;4.94;88.60;96740.31;29396;219;63009;-55
2023/04/07 02:24:43;;;;;;;0.50;0.50;;;;;;;4.95;88.47;96741.94;29396;365;63004;-57
2023/04/07 02:25:32;;;;;;;0.60;0.60;;;;;;;4.97;88.22;96740.63;29396;239;63009;-55
2023/04/07 02:26:04;;;;;;;0.60;0.60;;;;;;;4.99;88.16;96737.66;29396;212;63004;-56
2023/04/07 02:26:36;;;;;;;0.65;0.65;;;;;;;5.00;88.37;96739.28;29396;203;63009;-55
2023/04/07 02:27:10;;;;;;;0.60;0.60;;;;;;;4.96;88.69;96730.13;29396;224;63004;-55
2023/04/07 02:27:41;;;;;;;0.60;0.60;;;;;;;4.94;88.45;96733.06;29395;210;64029;-56
2023/04/07 02:28:13;;;;;;;0.50;0.50;;;;;;;4.93;88.24;96736.00;29396;217;63011;-57
2023/04/07 02:28:44;;;;;;;0.55;0.55;;;;;;;4.94;88.46;96733.06;29396;221;63009;-55
2023/04/07 02:29:15;;;;;;;0.60;0.60;;;;;;;4.96;88.64;96735.50;29396;217;63005;-58
2023/04/07 02:29:46;;;;;;;0.60;0.60;;;;;;;4.96;88.57;96736.31;29395;208;64013;-55
2023/04/07 02:30:18;;;;;;;0.50;0.50;;;;;;;4.96;88.58;96735.50;29396;214;63005;-56
2023/04/07 02:30:50;;;;;;;0.60;0.60;;;;;;;4.98;88.59;96736.03;29396;210;63009;-55
2023/04/07 02:31:21;;;;;;;0.60;0.60;;;;;;;5.00;88.07;96733.91;29396;227;63004;-55
2023/04/07 02:31:52;;;;;;;0.60;0.60;;;;;;;5.01;88.29;96735.53;29396;205;63009;-56
2023/04/07 02:32:24;;;;;;;0.55;0.55;;;;;;;5.01;88.31;96739.03;29396;248;63004;-57
2023/04/07 02:32:55;;;;;;;0.60;0.60;;;;;;;5.03;88.41;96733.38;29396;233;63009;-56
2023/04/07 02:33:27;;;;;;;0.50;0.50;;;;;;;5.03;87.90;96734.19;29396;230;63007;-55
2023/04/07 02:33:58;;;;;;;0.50;0.50;;;;;;;5.02;87.70;96727.19;29395;198;64013;-56
2023/04/07 02:34:29;;;;;;;0.60;0.60;;;;;;;5.03;87.49;96728.00;29396;263;63007;-56
2023/04/07 02:35:00;;;;;;;0.60;0.60;;;;;;;5.06;87.41;96724.81;29396;309;63008;-56
2023/04/07 02:35:31;;;;;;;0.60;0.60;;;;;;;5.11;86.94;96722.16;29396;309;63005;-56
2023/04/07 02:36:03;;;;;;;0.57;0.57;;;;;;;5.11;86.96;96732.91;29395;209;64014;-58
2023/04/07 02:36:34;;;;;;;0.60;0.60;;;;;;;5.09;86.84;96732.34;29396;227;63005;-55
2023/04/07 02:37:05;;;;;;;0.60;0.60;;;;;;;5.08;86.85;96727.22;29396;299;63018;-56
2023/04/07 02:37:38;;;;;;;0.60;0.60;;;;;;;5.05;86.51;96725.88;29396;231;63005;-56
2023/04/07 02:38:09;;;;;;;0.60;0.60;;;;;;;5.03;86.75;96728.00;29396;206;63017;-56
2023/04/07 02:38:41;;;;;;;5.40;5.07;;;;;;;5.01;86.66;96716.69;29395;275;64009;-56
2023/04/07 02:39:12;;;;;;;0.52;0.52;;;;;;;5.01;86.87;96724.78;29396;274;63009;-56
2023/04/07 02:39:43;;;;;;;0.55;0.55;;;;;;;5.03;86.83;96722.63;29396;196;63004;-57
2023/04/07 02:40:15;;;;;;;0.50;0.50;;;;;;;5.06;86.90;96722.13;29396;240;63009;-55
2023/04/07 02:40:46;;;;;;;0.50;0.50;;;;;;;5.10;86.90;96728.59;29395;231;64009;-54
2023/04/07 02:41:17;;;;;;;0.57;0.57;;;;;;;5.07;86.94;96723.72;29396;232;63008;-55
2023/04/07 02:41:49;;;;;;;0.50;0.50;;;;;;;5.09;86.72;96726.97;29396;196;63004;-55
2023/04/07 02:42:20;;;;;;;0.60;0.60;;;;;;;5.07;86.62;96721.03;29396;233;63024;-57
2023/04/07 02:42:51;;;;;;;0.50;0.50;;;;;;;5.06;86.33;96719.44;29396;233;63005;-55
2023/04/07 02:43:24;;;;;;;0.60;0.60;;;;;;;5.04;86.49;96726.94;29396;219;63009;-55
2023/04/07 02:43:55;;;;;;;0.52;0.52;;;;;;;5.04;86.63;96714.31;29395;212;64009;-56
2023/04/07 02:44:26;;;;;;;0.50;0.50;;;;;;;5.05;86.61;96721.31;29396;218;63009;-55
2023/04/07 02:44:58;;;;;;;0.60;0.60;;;;;;;5.05;86.76;96721.31;29396;210;63005;-55
2023/04/07 02:45:29;;;;;;;0.50;0.50;;;;;;;5.04;86.77;96725.06;29396;204;63009;-55
2023/04/07 02:46:01;;;;;;;0.50;0.50;;;;;;;5.02;86.99;96726.38;29396;236;63005;-55
2023/04/07 02:46:32;;;;;;;0.60;0.60;;;;;;;4.98;87.94;96720.72;29395;202;64013;-54